首页
METAR-TAF:

METAR-TAF

机场 :

索尔诺克, 匈牙利

纬度: 47-07N, 经度: 020-14E, 海拔: 89米

当前天气观测

该预报发布于39分钟前的17:45 UTC
风速4节,风向东北
温度 2°C
湿度 60%
气压 1021 hPa
能见度10公里或以上
1500米以下无云,无积雨云

METAR: LHSN 301745Z 05004KT CAVOK 02/M05 Q1021 NOSIG RMK BLU

时间: 20:24 (18:24 UTC)

预报

该预报发布于1小时和9分钟前的17:15 UTC
预报有效从30日的 18点(UTC)到 31日的 03点(UTC)
风速8节,风向东北
能见度10公里或以上
散云层高于4500英尺
多云层高于8300英尺
成为
从 30日的 19点(UTC)到 30日的 21点(UTC)
风速6节,风向
能见度10公里或以上
1500米以下无云,无积雨云

TAF: LHSN 301715Z 3018/3103 05008KT 9999 SCT045 BKN083 BECMG 3019/3021 36006KT CAVOK

超过4000个机场的气象观测和天气预报(METAR&TAF报告)。

可查询的气象台以黄色和红色小点在地图上表示。

将鼠标移到小点上方,可查看气象台名称。

然后点击查看天气观测和预报。

如需切换地图:点击带黑十字的绿色按钮放大地图;点击带横线的绿色按钮缩小地图;或者点击绿色箭头查看邻近地区的地图。


METAR-TAF: